University of Miami, Florida
Current Conditions -  °F | °C
As of 4:53 AM on Sunday 23 Nov 2014 (Local Time) from KMIA Reporting Station
Scattered Clouds Scattered Clouds  
Wind Chill: 77°   Ceiling: Unl
Heat Index: 78°   Visibility: 10mi
Dew Point: 72°   Wind: 10mph
Humidity: 84%   Direction: 120°ESE
Pressure: 30.01"   Gusts: NA
Location:  25.7207°N, 80.2732°W
Report Text: KMIA 230953Z 12009KT 10SM FEW019 SCT025 25/22 A3001 RMK AO2 SLP162 T02500222
Loading
Personal Weather Stations






























Interactive Weather Map New forecast layout! Learn more

10-Day Weather Forecast

Advertisements
Track Severe Weather on mobile